createdAt,value
2022-08-02T00:03:31.425Z,98722.81
2022-08-02T00:08:35.949Z,98727.13
2022-08-02T00:13:40.175Z,98726.91
2022-08-02T00:18:43.032Z,98729.91
2022-08-02T00:24:28.114Z,98729.38
2022-08-02T00:29:09.910Z,98714.03
2022-08-02T00:34:28.347Z,98729.78
2022-08-02T00:39:35.781Z,98727.69
2022-08-02T00:44:40.341Z,98726.16
2022-08-02T00:49:43.108Z,98735.72
2022-08-02T00:54:45.952Z,98722.91
2022-08-02T00:59:50.589Z,98731.91
2022-08-02T01:04:53.426Z,98730.69
2022-08-02T01:09:56.183Z,98727.09
2022-08-02T01:15:02.549Z,98728.56
2022-08-02T01:20:13.030Z,98731.25
2022-08-02T01:25:30.329Z,98724.88
2022-08-02T01:30:36.126Z,98730.34
2022-08-02T01:35:50.552Z,98725.25
2022-08-02T01:40:55.851Z,98723.84
2022-08-02T01:46:01.504Z,98729.41
2022-08-02T01:51:06.031Z,98730.84
2022-08-02T01:56:10.476Z,98725.94
2022-08-02T02:01:18.849Z,98724.25
2022-08-02T02:06:24.886Z,98724.34
2022-08-02T02:12:09.653Z,98724.66
2022-08-02T02:16:54.137Z,98726.25
2022-08-02T02:21:58.700Z,98721.19
2022-08-02T02:27:04.319Z,98729.28
2022-08-02T02:32:09.327Z,98730.16
2022-08-02T02:37:17.454Z,98712.88
2022-08-02T02:42:23.395Z,98701.91
2022-08-02T02:47:40.926Z,98707.66
2022-08-02T02:52:45.286Z,98707.09
2022-08-02T02:57:48.956Z,98713.94
2022-08-02T03:02:53.170Z,98707.50
2022-08-02T03:07:55.957Z,98719.22
2022-08-02T03:12:59.645Z,98724.03
2022-08-02T03:18:03.794Z,98709.53
2022-08-02T03:23:06.550Z,98703.66
2022-08-02T03:28:10.403Z,98709.06
2022-08-02T03:33:14.873Z,98701.06
2022-08-02T03:38:19.810Z,98707.81
2022-08-02T03:43:25.127Z,98705.03
2022-08-02T03:48:35.310Z,98692.91
2022-08-02T03:53:38.671Z,98691.06
2022-08-02T03:58:43.654Z,98685.84
2022-08-02T04:03:51.251Z,98695.84
2022-08-02T04:08:54.029Z,98689.97
2022-08-02T04:13:57.155Z,98687.13
2022-08-02T04:19:03.723Z,98706.16
2022-08-02T04:24:08.365Z,98712.50
2022-08-02T04:29:15.887Z,98713.06
2022-08-02T04:34:20.494Z,98716.69
2022-08-02T04:39:23.901Z,98714.16
2022-08-02T04:44:26.872Z,98717.75
2022-08-02T04:49:31.047Z,98717.16
2022-08-02T04:54:33.867Z,98715.88
2022-08-02T04:59:36.566Z,98726.59
2022-08-02T05:04:40.685Z,98728.56
2022-08-02T05:09:43.432Z,98728.81
2022-08-02T05:14:46.126Z,98734.31
2022-08-02T05:19:50.273Z,98737.78
2022-08-02T05:24:53.018Z,98729.09
2022-08-02T05:29:57.921Z,98732.69
2022-08-02T05:35:03.295Z,98733.28
2022-08-02T05:40:12.928Z,98743.53
2022-08-02T05:45:16.108Z,98753.72
2022-08-02T05:50:20.867Z,98755.72
2022-08-02T05:55:28.925Z,98751.53
2022-08-02T06:00:36.970Z,98754.97
2022-08-02T06:05:47.758Z,98767.47
2022-08-02T06:10:53.140Z,98760.94
2022-08-02T06:15:59.388Z,98756.41
2022-08-02T06:22:33.144Z,98764.63
2022-08-02T06:26:29.572Z,98757.13
2022-08-02T06:31:32.492Z,98756.94
2022-08-02T06:36:46.963Z,98750.16
2022-08-02T06:41:53.102Z,98746.38
2022-08-02T06:47:13.482Z,98742.53
2022-08-02T06:52:19.239Z,98746.72
2022-08-02T06:57:22.628Z,98746.41
2022-08-02T07:02:25.550Z,98743.41
2022-08-02T07:07:33.481Z,98750.41
2022-08-02T07:12:36.583Z,98743.94
2022-08-02T07:17:39.432Z,98749.34
2022-08-02T07:22:43.567Z,98745.13
2022-08-02T07:27:46.451Z,98740.75
2022-08-02T07:32:49.295Z,98733.72
2022-08-02T07:38:01.983Z,98723.19
2022-08-02T07:43:05.328Z,98728.91
2022-08-02T07:48:08.543Z,98724.28
2022-08-02T07:53:14.164Z,98715.25
2022-08-02T07:58:17.088Z,98735.00
2022-08-02T08:03:20.181Z,98743.72
2022-08-02T08:08:25.460Z,98736.44
2022-08-02T08:13:31.112Z,98728.34
2022-08-02T08:18:34.723Z,98715.03
2022-08-02T08:23:39.131Z,98715.84
2022-08-02T08:28:41.925Z,98725.66
2022-08-02T08:33:44.651Z,98727.31
2022-08-02T08:38:50.151Z,98717.88
2022-08-02T08:43:53.485Z,98716.38
2022-08-02T08:49:01.266Z,98724.06
2022-08-02T08:54:08.453Z,98722.34
2022-08-02T08:59:11.656Z,98719.00
2022-08-02T09:04:14.411Z,98718.22
2022-08-02T09:09:19.160Z,98718.00
2022-08-02T09:14:29.272Z,98714.22
2022-08-02T09:19:33.375Z,98709.41
2022-08-02T09:24:47.095Z,98707.19
2022-08-02T09:30:12.497Z,98701.44
2022-08-02T09:35:15.389Z,98710.41
2022-08-02T09:40:36.197Z,98697.22
2022-08-02T09:45:39.127Z,98704.38
2022-08-02T09:50:42.718Z,98699.03
2022-08-02T09:55:57.060Z,98700.19
2022-08-02T10:01:01.090Z,98702.03
2022-08-02T10:06:04.602Z,98703.56
2022-08-02T10:11:08.871Z,98697.72
2022-08-02T10:16:12.276Z,98692.63
2022-08-02T10:21:19.540Z,98690.13
2022-08-02T10:26:28.975Z,98685.56
2022-08-02T10:31:37.976Z,98688.94
2022-08-02T10:36:45.068Z,98684.72
2022-08-02T10:41:51.518Z,98674.97
2022-08-02T10:47:15.432Z,98670.72
2022-08-02T10:52:20.373Z,98668.59
2022-08-02T10:57:25.964Z,98668.34
2022-08-02T11:02:38.112Z,98660.31
2022-08-02T11:07:49.153Z,98666.91
2022-08-02T11:13:06.045Z,98662.50
2022-08-02T11:18:08.834Z,98647.59
2022-08-02T11:23:45.191Z,98645.13
2022-08-02T11:28:50.510Z,98645.69
2022-08-02T11:33:54.299Z,98643.44
2022-08-02T11:39:11.522Z,98637.81
2022-08-02T11:44:14.315Z,98634.88
2022-08-02T11:49:18.810Z,98635.91
2022-08-02T11:54:29.179Z,98628.19
2022-08-02T11:59:32.017Z,98634.84
2022-08-02T12:04:35.393Z,98627.47
2022-08-02T12:09:41.398Z,98615.25
2022-08-02T12:14:44.957Z,98618.94
2022-08-02T12:19:48.660Z,98626.19
2022-08-02T12:24:54.568Z,98614.34
2022-08-02T12:30:03.967Z,98612.44
2022-08-02T12:35:11.026Z,98626.13
2022-08-02T12:40:27.332Z,98623.31
2022-08-02T12:45:41.152Z,98622.09
2022-08-02T12:50:45.592Z,98620.28
2022-08-02T12:55:59.295Z,98600.78
2022-08-02T13:01:05.410Z,98613.31
2022-08-02T13:06:32.349Z,98593.75
2022-08-02T13:11:33.678Z,98598.81
2022-08-02T13:16:36.456Z,98596.34
2022-08-02T13:21:40.878Z,98607.44
2022-08-02T13:27:04.638Z,98588.97
2022-08-02T13:32:11.792Z,98586.94
2022-08-02T13:37:15.717Z,98588.81
2022-08-02T13:42:19.961Z,98572.72
2022-08-02T13:47:35.884Z,98565.16
2022-08-02T13:52:39.297Z,98555.84
2022-08-02T13:57:43.516Z,98570.06
2022-08-02T14:02:56.485Z,98562.59
2022-08-02T14:08:01.493Z,98566.34
2022-08-02T14:13:05.880Z,98558.19
2022-08-02T14:18:08.605Z,98546.75
2022-08-02T14:23:11.538Z,98540.47
2022-08-02T14:28:15.862Z,98537.34
2022-08-02T14:33:18.906Z,98538.09
2022-08-02T14:38:21.750Z,98535.66
2022-08-02T14:43:43.809Z,98548.41
2022-08-02T14:48:48.737Z,98536.97
2022-08-02T14:54:02.691Z,98521.88
2022-08-02T14:59:08.659Z,98523.81
2022-08-02T15:04:11.448Z,98515.13
2022-08-02T15:09:14.411Z,98511.94
2022-08-02T15:14:19.137Z,98519.31
2022-08-02T15:19:28.725Z,98515.38
2022-08-02T15:24:48.642Z,98527.38
2022-08-02T15:30:00.033Z,98528.75
2022-08-02T15:35:03.431Z,98525.09
2022-08-02T15:40:07.243Z,98532.44
2022-08-02T15:45:13.162Z,98520.69
2022-08-02T15:50:18.270Z,98534.25
2022-08-02T15:55:21.325Z,98532.31
2022-08-02T16:00:25.352Z,98520.13
2022-08-02T16:05:28.365Z,98513.41
2022-08-02T16:10:31.407Z,98518.94
2022-08-02T16:15:35.519Z,98522.38
2022-08-02T16:20:38.612Z,98526.56
2022-08-02T16:25:42.106Z,98503.81
2022-08-02T16:30:54.396Z,98511.00
2022-08-02T16:36:07.745Z,98511.41
2022-08-02T16:41:11.325Z,98511.03
2022-08-02T16:46:15.517Z,98500.06
2022-08-02T16:51:22.236Z,98502.72
2022-08-02T16:56:25.012Z,98489.75
2022-08-02T17:02:10.900Z,98468.88
2022-08-02T17:06:52.794Z,98459.22
2022-08-02T17:11:55.705Z,98465.06
2022-08-02T17:16:59.816Z,98450.56
2022-08-02T17:22:02.918Z,98452.53
2022-08-02T17:27:05.883Z,98462.13
2022-08-02T17:32:11.619Z,98449.63
2022-08-02T17:37:14.587Z,98451.13
2022-08-02T17:42:19.855Z,98447.53
2022-08-02T17:47:30.756Z,98447.06
2022-08-02T17:52:51.812Z,98440.38
2022-08-02T17:57:58.774Z,98441.06
2022-08-02T18:03:06.060Z,98453.19
2022-08-02T18:08:10.534Z,98447.06
2022-08-02T18:13:17.756Z,98446.09
2022-08-02T18:18:29.274Z,98446.66
2022-08-02T18:23:32.600Z,98444.38
2022-08-02T18:28:40.848Z,98446.13
2022-08-02T18:34:00.114Z,98440.16
2022-08-02T18:39:08.189Z,98445.25
2022-08-02T18:44:15.801Z,98438.25
2022-08-02T18:49:21.219Z,98449.41
2022-08-02T18:54:30.862Z,98446.53
2022-08-02T18:59:37.671Z,98439.94
2022-08-02T19:04:43.598Z,98440.53
2022-08-02T19:09:49.716Z,98440.00
2022-08-02T19:14:52.704Z,98436.84
2022-08-02T19:19:56.929Z,98440.44
2022-08-02T19:25:01.206Z,98433.03
2022-08-02T19:35:31.408Z,98450.94
2022-08-02T19:40:34.547Z,98456.38
2022-08-02T19:45:48.964Z,98453.00
2022-08-02T19:51:00.621Z,98451.50
2022-08-02T19:56:04.697Z,98460.84
2022-08-02T20:01:09.470Z,98453.84
2022-08-02T20:06:29.432Z,98451.00
2022-08-02T20:11:34.826Z,98460.47
2022-08-02T20:16:38.253Z,98456.56
2022-08-02T20:21:52.954Z,98458.06
2022-08-02T20:27:11.426Z,98466.06
2022-08-02T20:32:22.446Z,98469.16
2022-08-02T20:37:56.044Z,98470.44
2022-08-02T20:42:51.423Z,98476.28
2022-08-02T20:47:58.474Z,98475.63
2022-08-02T20:53:05.898Z,98484.59
2022-08-02T20:58:11.687Z,98472.00
2022-08-02T21:03:19.574Z,98476.56
2022-08-02T21:08:48.342Z,98484.81
2022-08-02T21:14:08.544Z,98482.66
2022-08-02T21:19:12.302Z,98486.81
2022-08-02T21:24:16.451Z,98481.66
2022-08-02T21:29:19.920Z,98478.25
2022-08-02T21:34:27.099Z,98472.13
2022-08-02T21:39:32.265Z,98479.88
2022-08-02T21:44:35.160Z,98483.16
2022-08-02T21:50:09.359Z,98474.13
2022-08-02T21:55:02.673Z,98487.56
2022-08-02T22:00:10.844Z,98493.94
2022-08-02T22:05:14.263Z,98489.84
2022-08-02T22:10:18.728Z,98489.78
2022-08-02T22:15:25.782Z,98480.81
2022-08-02T22:20:38.556Z,98493.78
2022-08-02T22:25:45.304Z,98501.00
2022-08-02T22:30:52.466Z,98503.91
2022-08-02T22:35:56.044Z,98504.31
2022-08-02T22:41:00.263Z,98501.88
2022-08-02T22:46:03.534Z,98506.34
2022-08-02T22:51:06.449Z,98508.34
2022-08-02T22:56:11.398Z,98502.75
2022-08-02T22:58:48.314Z,98452.69
2022-08-02T23:01:14.527Z,98505.56
2022-08-02T23:06:19.202Z,98504.81
2022-08-02T23:11:26.955Z,98505.75
2022-08-02T23:16:47.428Z,98509.13
2022-08-02T23:22:01.503Z,98503.97
2022-08-02T23:27:07.291Z,98507.00
2022-08-02T23:32:10.174Z,98511.09
2022-08-02T23:37:13.088Z,98511.88
2022-08-02T23:42:17.431Z,98515.88
2022-08-02T23:47:21.528Z,98514.41
2022-08-02T23:52:24.882Z,98514.50
2022-08-02T23:57:29.072Z,98515.19
